sensor_id;sensor_type;location;lat;lon;timestamp;P1;durP1;ratioP1;P2;durP2;ratioP2
31716;SDS011;18301;51.076;17.046;2023-02-03T00:04:23;16.90;;;6.90;;
31716;SDS011;18301;51.076;17.046;2023-02-03T00:09:25;30.38;;;8.88;;
31716;SDS011;18301;51.076;17.046;2023-02-03T00:14:26;35.50;;;9.80;;
31716;SDS011;18301;51.076;17.046;2023-02-03T00:19:28;32.00;;;10.60;;
31716;SDS011;18301;51.076;17.046;2023-02-03T00:24:29;24.58;;;10.45;;
31716;SDS011;18301;51.076;17.046;2023-02-03T00:29:31;24.95;;;9.40;;
31716;SDS011;18301;51.076;17.046;2023-02-03T00:34:32;24.42;;;9.40;;
31716;SDS011;18301;51.076;17.046;2023-02-03T00:39:36;21.85;;;8.00;;
31716;SDS011;18301;51.076;17.046;2023-02-03T00:44:38;16.23;;;7.25;;
31716;SDS011;18301;51.076;17.046;2023-02-03T00:49:39;16.02;;;7.38;;
31716;SDS011;18301;51.076;17.046;2023-02-03T00:54:41;15.30;;;7.30;;
31716;SDS011;18301;51.076;17.046;2023-02-03T00:59:42;15.43;;;7.68;;
31716;SDS011;18301;51.076;17.046;2023-02-03T01:04:44;18.23;;;8.90;;
31716;SDS011;18301;51.076;17.046;2023-02-03T01:09:45;28.10;;;10.88;;
31716;SDS011;18301;51.076;17.046;2023-02-03T01:14:47;28.15;;;10.63;;
31716;SDS011;18301;51.076;17.046;2023-02-03T01:19:49;23.77;;;10.05;;
31716;SDS011;18301;51.076;17.046;2023-02-03T01:24:51;22.35;;;8.90;;
31716;SDS011;18301;51.076;17.046;2023-02-03T01:29:52;19.65;;;8.27;;
31716;SDS011;18301;51.076;17.046;2023-02-03T01:34:54;22.15;;;9.60;;
31716;SDS011;18301;51.076;17.046;2023-02-03T01:39:55;15.15;;;7.18;;
31716;SDS011;18301;51.076;17.046;2023-02-03T01:44:57;21.17;;;8.48;;
31716;SDS011;18301;51.076;17.046;2023-02-03T01:50:02;19.60;;;8.85;;
31716;SDS011;18301;51.076;17.046;2023-02-03T01:55:17;18.52;;;7.55;;
31716;SDS011;18301;51.076;17.046;2023-02-03T02:00:21;19.30;;;8.60;;
31716;SDS011;18301;51.076;17.046;2023-02-03T02:10:32;18.63;;;8.27;;
31716;SDS011;18301;51.076;17.046;2023-02-03T02:15:42;16.73;;;7.78;;
31716;SDS011;18301;51.076;17.046;2023-02-03T02:20:57;16.98;;;7.85;;
31716;SDS011;18301;51.076;17.046;2023-02-03T02:26:28;23.25;;;8.27;;
31716;SDS011;18301;51.076;17.046;2023-02-03T02:32:03;15.27;;;7.15;;
31716;SDS011;18301;51.076;17.046;2023-02-03T02:37:08;14.95;;;6.55;;
31716;SDS011;18301;51.076;17.046;2023-02-03T02:47:32;18.60;;;8.43;;
31716;SDS011;18301;51.076;17.046;2023-02-03T02:52:34;13.95;;;6.70;;
31716;SDS011;18301;51.076;17.046;2023-02-03T02:57:39;16.85;;;6.90;;
31716;SDS011;18301;51.076;17.046;2023-02-03T03:02:42;15.93;;;7.00;;
31716;SDS011;18301;51.076;17.046;2023-02-03T03:07:45;19.08;;;6.80;;
31716;SDS011;18301;51.076;17.046;2023-02-03T03:12:52;13.82;;;6.22;;
31716;SDS011;18301;51.076;17.046;2023-02-03T03:18:16;16.05;;;6.75;;
31716;SDS011;18301;51.076;17.046;2023-02-03T03:23:29;15.00;;;7.60;;
31716;SDS011;18301;51.076;17.046;2023-02-03T03:28:45;23.17;;;9.60;;
31716;SDS011;18301;51.076;17.046;2023-02-03T03:33:49;23.42;;;8.90;;
31716;SDS011;18301;51.076;17.046;2023-02-03T03:44:04;26.17;;;8.88;;
31716;SDS011;18301;51.076;17.046;2023-02-03T03:49:10;23.35;;;9.20;;
31716;SDS011;18301;51.076;17.046;2023-02-03T03:54:14;23.23;;;8.48;;
31716;SDS011;18301;51.076;17.046;2023-02-03T03:59:20;17.20;;;7.70;;
31716;SDS011;18301;51.076;17.046;2023-02-03T04:04:24;16.42;;;6.95;;
31716;SDS011;18301;51.076;17.046;2023-02-03T04:09:27;21.65;;;7.82;;
31716;SDS011;18301;51.076;17.046;2023-02-03T04:14:29;32.83;;;8.65;;
31716;SDS011;18301;51.076;17.046;2023-02-03T04:19:35;22.30;;;7.70;;
31716;SDS011;18301;51.076;17.046;2023-02-03T04:24:36;20.23;;;7.20;;
31716;SDS011;18301;51.076;17.046;2023-02-03T04:29:38;17.08;;;6.72;;
31716;SDS011;18301;51.076;17.046;2023-02-03T04:34:39;13.07;;;6.20;;
31716;SDS011;18301;51.076;17.046;2023-02-03T04:39:41;10.45;;;5.15;;
31716;SDS011;18301;51.076;17.046;2023-02-03T04:44:42;11.25;;;5.30;;
31716;SDS011;18301;51.076;17.046;2023-02-03T04:49:44;9.13;;;4.80;;
31716;SDS011;18301;51.076;17.046;2023-02-03T04:54:45;8.70;;;4.28;;
31716;SDS011;18301;51.076;17.046;2023-02-03T04:59:47;11.18;;;5.05;;
31716;SDS011;18301;51.076;17.046;2023-02-03T05:04:49;11.57;;;4.43;;
31716;SDS011;18301;51.076;17.046;2023-02-03T05:09:50;9.02;;;4.45;;
31716;SDS011;18301;51.076;17.046;2023-02-03T05:14:51;9.98;;;4.68;;
31716;SDS011;18301;51.076;17.046;2023-02-03T05:19:53;10.95;;;4.50;;
31716;SDS011;18301;51.076;17.046;2023-02-03T05:24:54;12.50;;;4.85;;
31716;SDS011;18301;51.076;17.046;2023-02-03T05:29:56;10.60;;;4.90;;
31716;SDS011;18301;51.076;17.046;2023-02-03T05:34:57;14.63;;;5.65;;
31716;SDS011;18301;51.076;17.046;2023-02-03T05:39:59;15.95;;;6.13;;
31716;SDS011;18301;51.076;17.046;2023-02-03T05:45:20;14.23;;;6.07;;
31716;SDS011;18301;51.076;17.046;2023-02-03T05:50:21;14.77;;;5.97;;
31716;SDS011;18301;51.076;17.046;2023-02-03T05:55:23;9.70;;;5.72;;
31716;SDS011;18301;51.076;17.046;2023-02-03T06:00:24;8.38;;;4.95;;
31716;SDS011;18301;51.076;17.046;2023-02-03T06:05:27;12.95;;;5.80;;
31716;SDS011;18301;51.076;17.046;2023-02-03T06:10:29;22.65;;;8.82;;
31716;SDS011;18301;51.076;17.046;2023-02-03T06:15:31;15.35;;;6.45;;
31716;SDS011;18301;51.076;17.046;2023-02-03T06:20:32;25.65;;;9.52;;
31716;SDS011;18301;51.076;17.046;2023-02-03T06:25:33;21.83;;;8.98;;
31716;SDS011;18301;51.076;17.046;2023-02-03T06:30:35;14.40;;;6.53;;
31716;SDS011;18301;51.076;17.046;2023-02-03T06:35:37;19.00;;;9.00;;
31716;SDS011;18301;51.076;17.046;2023-02-03T06:40:38;10.20;;;5.13;;
31716;SDS011;18301;51.076;17.046;2023-02-03T06:45:40;14.70;;;6.78;;
31716;SDS011;18301;51.076;17.046;2023-02-03T06:50:41;14.30;;;7.25;;
31716;SDS011;18301;51.076;17.046;2023-02-03T06:55:43;21.80;;;8.15;;
31716;SDS011;18301;51.076;17.046;2023-02-03T07:00:44;15.82;;;7.22;;
31716;SDS011;18301;51.076;17.046;2023-02-03T07:05:46;13.25;;;7.07;;
31716;SDS011;18301;51.076;17.046;2023-02-03T07:10:51;10.15;;;5.43;;
31716;SDS011;18301;51.076;17.046;2023-02-03T07:15:53;10.20;;;4.65;;
31716;SDS011;18301;51.076;17.046;2023-02-03T07:20:55;8.80;;;4.65;;
31716;SDS011;18301;51.076;17.046;2023-02-03T07:26:00;7.55;;;4.50;;
31716;SDS011;18301;51.076;17.046;2023-02-03T07:31:03;6.40;;;4.00;;
31716;SDS011;18301;51.076;17.046;2023-02-03T07:36:05;9.82;;;6.00;;
31716;SDS011;18301;51.076;17.046;2023-02-03T07:41:08;12.45;;;5.97;;
31716;SDS011;18301;51.076;17.046;2023-02-03T07:46:09;6.97;;;4.07;;
31716;SDS011;18301;51.076;17.046;2023-02-03T07:51:11;6.70;;;4.43;;
31716;SDS011;18301;51.076;17.046;2023-02-03T07:56:12;8.50;;;5.07;;
31716;SDS011;18301;51.076;17.046;2023-02-03T08:01:14;8.65;;;4.88;;
31716;SDS011;18301;51.076;17.046;2023-02-03T08:06:16;9.90;;;5.20;;
31716;SDS011;18301;51.076;17.046;2023-02-03T08:11:18;8.23;;;4.78;;
31716;SDS011;18301;51.076;17.046;2023-02-03T08:16:20;9.93;;;5.28;;
31716;SDS011;18301;51.076;17.046;2023-02-03T08:21:21;10.15;;;5.00;;
31716;SDS011;18301;51.076;17.046;2023-02-03T08:26:23;8.90;;;4.57;;
31716;SDS011;18301;51.076;17.046;2023-02-03T08:31:24;9.40;;;4.80;;
31716;SDS011;18301;51.076;17.046;2023-02-03T08:36:26;9.27;;;5.00;;
31716;SDS011;18301;51.076;17.046;2023-02-03T08:41:42;26.38;;;8.45;;
31716;SDS011;18301;51.076;17.046;2023-02-03T08:46:44;8.23;;;4.47;;
31716;SDS011;18301;51.076;17.046;2023-02-03T08:51:49;9.90;;;5.13;;
31716;SDS011;18301;51.076;17.046;2023-02-03T08:56:51;40.97;;;13.07;;
31716;SDS011;18301;51.076;17.046;2023-02-03T09:01:53;28.45;;;13.35;;
31716;SDS011;18301;51.076;17.046;2023-02-03T09:06:55;16.13;;;9.52;;
31716;SDS011;18301;51.076;17.046;2023-02-03T09:11:56;10.82;;;5.30;;
31716;SDS011;18301;51.076;17.046;2023-02-03T09:17:03;8.93;;;4.80;;
31716;SDS011;18301;51.076;17.046;2023-02-03T09:22:06;11.13;;;5.15;;
31716;SDS011;18301;51.076;17.046;2023-02-03T09:27:07;10.30;;;4.80;;
31716;SDS011;18301;51.076;17.046;2023-02-03T09:32:09;19.63;;;9.27;;
31716;SDS011;18301;51.076;17.046;2023-02-03T09:37:11;29.73;;;11.02;;
31716;SDS011;18301;51.076;17.046;2023-02-03T09:47:51;12.97;;;6.63;;
31716;SDS011;18301;51.076;17.046;2023-02-03T09:52:55;17.92;;;8.75;;
31716;SDS011;18301;51.076;17.046;2023-02-03T10:03:18;11.50;;;5.80;;
31716;SDS011;18301;51.076;17.046;2023-02-03T10:25:09;16.65;;;8.27;;
31716;SDS011;18301;51.076;17.046;2023-02-03T10:35:26;12.57;;;7.28;;
31716;SDS011;18301;51.076;17.046;2023-02-03T10:40:36;14.50;;;7.40;;
31716;SDS011;18301;51.076;17.046;2023-02-03T10:45:38;16.27;;;7.70;;
31716;SDS011;18301;51.076;17.046;2023-02-03T10:50:41;14.80;;;7.85;;
31716;SDS011;18301;51.076;17.046;2023-02-03T10:55:48;15.18;;;7.38;;
31716;SDS011;18301;51.076;17.046;2023-02-03T11:06:15;14.10;;;6.90;;
31716;SDS011;18301;51.076;17.046;2023-02-03T11:11:25;15.98;;;7.65;;
31716;SDS011;18301;51.076;17.046;2023-02-03T11:16:28;12.95;;;6.20;;
31716;SDS011;18301;51.076;17.046;2023-02-03T11:21:33;14.02;;;6.00;;
31716;SDS011;18301;51.076;17.046;2023-02-03T11:31:48;12.48;;;5.57;;
31716;SDS011;18301;51.076;17.046;2023-02-03T11:36:53;11.57;;;5.50;;
31716;SDS011;18301;51.076;17.046;2023-02-03T11:41:55;13.52;;;5.72;;
31716;SDS011;18301;51.076;17.046;2023-02-03T11:46:59;17.88;;;7.97;;
31716;SDS011;18301;51.076;17.046;2023-02-03T11:57:24;9.50;;;4.95;;
31716;SDS011;18301;51.076;17.046;2023-02-03T12:08:00;5.38;;;2.90;;
31716;SDS011;18301;51.076;17.046;2023-02-03T12:29:42;5.28;;;2.80;;
31716;SDS011;18301;51.076;17.046;2023-02-03T12:34:55;3.67;;;2.05;;
31716;SDS011;18301;51.076;17.046;2023-02-03T12:40:03;1.95;;;1.35;;
31716;SDS011;18301;51.076;17.046;2023-02-03T12:45:16;1.65;;;1.30;;
31716;SDS011;18301;51.076;17.046;2023-02-03T12:50:27;1.38;;;1.27;;
31716;SDS011;18301;51.076;17.046;2023-02-03T13:00:45;2.88;;;1.80;;
31716;SDS011;18301;51.076;17.046;2023-02-03T13:06:03;2.83;;;1.70;;
31716;SDS011;18301;51.076;17.046;2023-02-03T13:11:18;1.75;;;1.40;;
31716;SDS011;18301;51.076;17.046;2023-02-03T13:16:30;2.45;;;1.20;;
31716;SDS011;18301;51.076;17.046;2023-02-03T13:21:36;2.80;;;1.50;;
31716;SDS011;18301;51.076;17.046;2023-02-03T13:26:56;6.15;;;3.03;;
31716;SDS011;18301;51.076;17.046;2023-02-03T13:38:29;24.20;;;6.82;;
31716;SDS011;18301;51.076;17.046;2023-02-03T13:43:15;22.58;;;5.75;;
31716;SDS011;18301;51.076;17.046;2023-02-03T13:48:38;22.13;;;6.85;;
31716;SDS011;18301;51.076;17.046;2023-02-03T13:53:45;16.55;;;5.28;;
31716;SDS011;18301;51.076;17.046;2023-02-03T13:58:58;9.50;;;3.03;;
31716;SDS011;18301;51.076;17.046;2023-02-03T14:04:04;14.25;;;4.63;;
31716;SDS011;18301;51.076;17.046;2023-02-03T14:24:52;10.30;;;3.50;;
31716;SDS011;18301;51.076;17.046;2023-02-03T14:35:16;10.95;;;5.20;;
31716;SDS011;18301;51.076;17.046;2023-02-03T14:51:20;9.50;;;3.30;;
31716;SDS011;18301;51.076;17.046;2023-02-03T15:07:06;10.75;;;3.65;;
31716;SDS011;18301;51.076;17.046;2023-02-03T15:12:17;15.10;;;5.78;;
31716;SDS011;18301;51.076;17.046;2023-02-03T15:17:23;10.38;;;3.80;;
31716;SDS011;18301;51.076;17.046;2023-02-03T15:22:28;16.73;;;4.60;;
31716;SDS011;18301;51.076;17.046;2023-02-03T15:27:31;11.88;;;3.90;;
31716;SDS011;18301;51.076;17.046;2023-02-03T15:32:34;14.80;;;5.72;;
31716;SDS011;18301;51.076;17.046;2023-02-03T15:37:42;19.70;;;6.65;;
31716;SDS011;18301;51.076;17.046;2023-02-03T15:42:52;11.95;;;4.70;;
31716;SDS011;18301;51.076;17.046;2023-02-03T15:48:01;14.00;;;3.50;;
31716;SDS011;18301;51.076;17.046;2023-02-03T15:53:09;14.93;;;4.53;;
31716;SDS011;18301;51.076;17.046;2023-02-03T15:58:25;13.82;;;5.40;;
31716;SDS011;18301;51.076;17.046;2023-02-03T16:08:47;13.88;;;4.47;;
31716;SDS011;18301;51.076;17.046;2023-02-03T16:13:49;16.38;;;4.75;;
31716;SDS011;18301;51.076;17.046;2023-02-03T16:18:52;7.75;;;2.83;;
31716;SDS011;18301;51.076;17.046;2023-02-03T16:23:56;12.35;;;3.88;;
31716;SDS011;18301;51.076;17.046;2023-02-03T16:34:22;7.85;;;2.90;;
31716;SDS011;18301;51.076;17.046;2023-02-03T16:39:42;8.82;;;2.10;;
31716;SDS011;18301;51.076;17.046;2023-02-03T16:45:03;6.72;;;2.30;;
31716;SDS011;18301;51.076;17.046;2023-02-03T16:50:30;7.03;;;2.60;;
31716;SDS011;18301;51.076;17.046;2023-02-03T16:55:53;9.38;;;3.10;;
31716;SDS011;18301;51.076;17.046;2023-02-03T17:00:57;8.10;;;2.47;;
31716;SDS011;18301;51.076;17.046;2023-02-03T17:06:02;9.05;;;2.70;;
31716;SDS011;18301;51.076;17.046;2023-02-03T17:11:10;9.10;;;2.92;;
31716;SDS011;18301;51.076;17.046;2023-02-03T17:16:17;10.95;;;2.58;;
31716;SDS011;18301;51.076;17.046;2023-02-03T17:21:24;12.63;;;3.22;;
31716;SDS011;18301;51.076;17.046;2023-02-03T17:26:28;10.95;;;3.67;;
31716;SDS011;18301;51.076;17.046;2023-02-03T17:31:29;13.00;;;4.03;;
31716;SDS011;18301;51.076;17.046;2023-02-03T17:36:31;9.63;;;3.50;;
31716;SDS011;18301;51.076;17.046;2023-02-03T17:41:33;14.38;;;3.72;;
31716;SDS011;18301;51.076;17.046;2023-02-03T17:46:52;18.08;;;4.68;;
31716;SDS011;18301;51.076;17.046;2023-02-03T17:57:31;11.27;;;3.25;;
31716;SDS011;18301;51.076;17.046;2023-02-03T18:02:34;11.32;;;3.50;;
31716;SDS011;18301;51.076;17.046;2023-02-03T18:07:36;14.20;;;3.45;;
31716;SDS011;18301;51.076;17.046;2023-02-03T18:12:37;11.63;;;3.67;;
31716;SDS011;18301;51.076;17.046;2023-02-03T18:17:39;13.20;;;3.15;;
31716;SDS011;18301;51.076;17.046;2023-02-03T18:22:42;11.75;;;3.97;;
31716;SDS011;18301;51.076;17.046;2023-02-03T18:27:44;12.43;;;4.22;;
31716;SDS011;18301;51.076;17.046;2023-02-03T18:32:48;12.02;;;3.60;;
31716;SDS011;18301;51.076;17.046;2023-02-03T18:37:51;15.20;;;3.92;;
31716;SDS011;18301;51.076;17.046;2023-02-03T18:42:53;13.68;;;3.72;;
31716;SDS011;18301;51.076;17.046;2023-02-03T18:47:56;15.75;;;4.40;;
31716;SDS011;18301;51.076;17.046;2023-02-03T18:52:57;13.20;;;3.05;;
31716;SDS011;18301;51.076;17.046;2023-02-03T18:57:59;13.35;;;3.40;;
31716;SDS011;18301;51.076;17.046;2023-02-03T19:03:00;12.77;;;3.13;;
31716;SDS011;18301;51.076;17.046;2023-02-03T19:08:02;11.07;;;3.20;;
31716;SDS011;18301;51.076;17.046;2023-02-03T19:13:03;9.90;;;2.83;;
31716;SDS011;18301;51.076;17.046;2023-02-03T19:18:05;9.10;;;2.67;;
31716;SDS011;18301;51.076;17.046;2023-02-03T19:23:06;13.93;;;3.40;;
31716;SDS011;18301;51.076;17.046;2023-02-03T19:28:10;12.80;;;3.30;;
31716;SDS011;18301;51.076;17.046;2023-02-03T19:33:20;12.25;;;3.22;;
31716;SDS011;18301;51.076;17.046;2023-02-03T19:38:21;11.15;;;3.30;;
31716;SDS011;18301;51.076;17.046;2023-02-03T19:43:23;12.70;;;3.55;;
31716;SDS011;18301;51.076;17.046;2023-02-03T19:48:24;12.90;;;3.53;;
31716;SDS011;18301;51.076;17.046;2023-02-03T19:53:26;10.45;;;3.25;;
31716;SDS011;18301;51.076;17.046;2023-02-03T19:58:28;16.73;;;3.50;;
31716;SDS011;18301;51.076;17.046;2023-02-03T20:03:30;12.15;;;2.90;;
31716;SDS011;18301;51.076;17.046;2023-02-03T20:08:32;10.05;;;3.13;;
31716;SDS011;18301;51.076;17.046;2023-02-03T20:13:34;12.00;;;2.80;;
31716;SDS011;18301;51.076;17.046;2023-02-03T20:18:35;13.75;;;3.38;;
31716;SDS011;18301;51.076;17.046;2023-02-03T20:23:37;10.27;;;2.85;;
31716;SDS011;18301;51.076;17.046;2023-02-03T20:28:38;11.75;;;2.75;;
31716;SDS011;18301;51.076;17.046;2023-02-03T20:33:40;9.00;;;2.60;;
31716;SDS011;18301;51.076;17.046;2023-02-03T20:38:41;8.55;;;2.88;;
31716;SDS011;18301;51.076;17.046;2023-02-03T20:43:43;8.80;;;2.85;;
31716;SDS011;18301;51.076;17.046;2023-02-03T20:48:45;8.30;;;2.47;;
31716;SDS011;18301;51.076;17.046;2023-02-03T20:53:47;7.47;;;2.83;;
31716;SDS011;18301;51.076;17.046;2023-02-03T20:58:50;7.03;;;2.65;;
31716;SDS011;18301;51.076;17.046;2023-02-03T21:03:51;10.48;;;3.30;;
31716;SDS011;18301;51.076;17.046;2023-02-03T21:09:13;9.13;;;2.55;;
31716;SDS011;18301;51.076;17.046;2023-02-03T21:14:17;9.52;;;2.45;;
31716;SDS011;18301;51.076;17.046;2023-02-03T21:19:30;9.50;;;3.10;;
31716;SDS011;18301;51.076;17.046;2023-02-03T21:24:33;14.68;;;4.50;;
31716;SDS011;18301;51.076;17.046;2023-02-03T21:29:38;11.27;;;4.60;;
31716;SDS011;18301;51.076;17.046;2023-02-03T21:34:43;24.13;;;6.13;;
31716;SDS011;18301;51.076;17.046;2023-02-03T21:39:45;21.95;;;6.10;;
31716;SDS011;18301;51.076;17.046;2023-02-03T21:44:47;19.10;;;4.63;;
31716;SDS011;18301;51.076;17.046;2023-02-03T21:49:49;14.68;;;4.47;;
31716;SDS011;18301;51.076;17.046;2023-02-03T21:54:50;13.50;;;4.68;;
31716;SDS011;18301;51.076;17.046;2023-02-03T21:59:52;11.52;;;3.25;;
31716;SDS011;18301;51.076;17.046;2023-02-03T22:04:53;9.10;;;3.17;;
31716;SDS011;18301;51.076;17.046;2023-02-03T22:09:55;8.85;;;2.78;;
31716;SDS011;18301;51.076;17.046;2023-02-03T22:14:56;8.25;;;2.97;;
31716;SDS011;18301;51.076;17.046;2023-02-03T22:19:58;15.45;;;4.00;;
31716;SDS011;18301;51.076;17.046;2023-02-03T22:24:59;13.43;;;4.13;;
31716;SDS011;18301;51.076;17.046;2023-02-03T22:30:01;11.70;;;3.10;;
31716;SDS011;18301;51.076;17.046;2023-02-03T22:35:02;15.43;;;4.45;;
31716;SDS011;18301;51.076;17.046;2023-02-03T22:40:04;12.18;;;3.47;;
31716;SDS011;18301;51.076;17.046;2023-02-03T22:45:06;14.60;;;3.83;;
31716;SDS011;18301;51.076;17.046;2023-02-03T22:50:08;11.55;;;2.47;;
31716;SDS011;18301;51.076;17.046;2023-02-03T22:55:12;10.50;;;2.63;;
31716;SDS011;18301;51.076;17.046;2023-02-03T23:00:13;10.23;;;2.72;;
31716;SDS011;18301;51.076;17.046;2023-02-03T23:05:20;8.05;;;2.67;;
31716;SDS011;18301;51.076;17.046;2023-02-03T23:10:23;10.20;;;2.70;;
31716;SDS011;18301;51.076;17.046;2023-02-03T23:15:26;9.45;;;2.63;;
31716;SDS011;18301;51.076;17.046;2023-02-03T23:20:28;9.88;;;3.15;;
31716;SDS011;18301;51.076;17.046;2023-02-03T23:25:30;8.00;;;2.53;;
31716;SDS011;18301;51.076;17.046;2023-02-03T23:30:32;10.60;;;2.60;;
31716;SDS011;18301;51.076;17.046;2023-02-03T23:35:34;7.75;;;2.25;;
31716;SDS011;18301;51.076;17.046;2023-02-03T23:40:47;4.72;;;1.88;;
31716;SDS011;18301;51.076;17.046;2023-02-03T23:45:49;3.17;;;1.20;;
31716;SDS011;18301;51.076;17.046;2023-02-03T23:50:50;9.35;;;2.03;;
31716;SDS011;18301;51.076;17.046;2023-02-03T23:55:52;2.28;;;0.70;;
